Seaexpressii — HO4619 — position and weather

sailwx.info

Track history (hours):
 
Tides and Currents Weather Stations Pressure Air Temp Water Temp Dewpoint Dewpoint Depression Visibility Wind Speed Wind Dir Waves Ship Positions

Seaexpressii

Last reported at 2017-Jun-22 21:09 UTC. Time now 2017-Jun-24 15:38 UTC.
Position N 25°57' W 079°38'.

Length 37 m; draft 2.2 m.

Type: Ship (hazmat cat C). MMSI: 356449000.

Date/timePositionNaut miles runAvg speedWind from/ knotsBaromVisibWave heightAir tempDewpointWater temp
2017-Jun-22 21:09N 25°57' W 079°38'1 8.1
2017-Jun-22 21:00N 25°57' W 079°40'4 8.1
2017-Jun-22 20:30N 25°59' W 079°44'4 7.8
2017-Jun-22 20:00N 26°00' W 079°48'4 7.9
2017-Jun-22 19:30N 26°02' W 079°52'4 8.1
2017-Jun-22 19:00N 26°03' W 079°56'4 8.9
2017-Jun-22 18:30N 26°04' W 080°01'5 9.6
2017-Jun-22 18:00N 26°06' W 080°06'3 5.0
2017-Jun-22 17:30N 26°04' W 080°08'0 0.1
2017-Jun-22 17:01N 26°04' W 080°08'0 0.0
2017-Jun-22 16:30N 26°04' W 080°08'0 0.0
2017-Jun-22 16:01N 26°04' W 080°08'0 0.0
2017-Jun-22 15:30N 26°04' W 080°08'0 0.0
2017-Jun-22 15:00N 26°04' W 080°08'0 0.0
2017-Jun-22 14:30N 26°04' W 080°08'0 0.0
2017-Jun-22 13:30N 26°04' W 080°08'0 0.0
2017-Jun-22 13:00N 26°04' W 080°08'0 0.0
2017-Jun-22 12:30N 26°04' W 080°08'1 2.9
2017-Jun-22 12:00N 26°05' W 080°07'4 7.3
2017-Jun-22 11:30N 26°04' W 080°03'510.8
2017-Jun-22 11:00N 26°03' W 079°57'510.4
2017-Jun-22 10:30N 26°02' W 079°51'510.3
2017-Jun-22 10:00N 26°00' W 079°46'510.3
2017-Jun-22 09:30N 25°59' W 079°40'10 0.4
2017-Jun-21 04:28N 25°53' W 079°30'3 7.3
2017-Jun-21 03:59N 25°55' W 079°34'4 7.1
2017-Jun-21 03:29N 25°58' W 079°37'4 7.6
2017-Jun-21 03:00N 25°59' W 079°41'4 7.8
2017-Jun-21 02:30N 26°00' W 079°45'4 8.1
2017-Jun-21 02:00N 26°01' W 079°49'4 8.7
2017-Jun-21 01:30N 26°01' W 079°54'5 9.1
2017-Jun-21 01:00N 26°03' W 079°59'5 9.6
2017-Jun-21 00:30N 26°05' W 080°04'3 5.9
2017-Jun-21 00:00N 26°04' W 080°07'1 2.0
2017-Jun-20 23:30N 26°04' W 080°08'0 0.0
2017-Jun-20 23:00N 26°04' W 080°08'0 0.0
2017-Jun-20 22:30N 26°04' W 080°08'0 0.0
2017-Jun-20 22:00N 26°04' W 080°08'0 0.0
2017-Jun-20 21:30N 26°04' W 080°08'0 0.0
2017-Jun-20 21:00N 26°04' W 080°08'0 0.0
2017-Jun-20 20:30N 26°04' W 080°08'0 0.0
2017-Jun-20 20:00N 26°04' W 080°08'0 0.0
2017-Jun-20 19:30N 26°04' W 080°08'0 0.0
2017-Jun-20 19:00N 26°04' W 080°08'0 0.0
2017-Jun-20 18:30N 26°04' W 080°08'0 0.0
2017-Jun-20 18:00N 26°04' W 080°08'0 0.0
2017-Jun-20 17:30N 26°04' W 080°08'0 0.0
2017-Jun-20 17:00N 26°04' W 080°08'0 0.0
2017-Jun-20 16:30N 26°04' W 080°08'0 0.0
2017-Jun-20 16:00N 26°04' W 080°08'0 0.0
2017-Jun-20 15:30N 26°04' W 080°08'0 0.0
2017-Jun-20 15:00N 26°04' W 080°08'0 0.0
2017-Jun-20 14:30N 26°04' W 080°08'4 3.7
2017-Jun-20 13:30N 26°04' W 080°04'5 9.6
2017-Jun-20 13:00N 26°03' W 079°59'510.2
2017-Jun-20 12:30N 26°02' W 079°53'510.3
2017-Jun-20 12:00N 26°01' W 079°47'510.0
2017-Jun-20 11:27N 25°59' W 079°42'12 0.3
2017-Jun-18 16:27N 25°54' W 079°30'4 9.0
2017-Jun-18 16:00N 25°55' W 079°34'4 8.7
2017-Jun-18 15:30N 25°55' W 079°39'4 8.6
2017-Jun-18 15:00N 25°56' W 079°44'8 8.2
2017-Jun-18 14:00N 25°59' W 079°52'4 8.2
2017-Jun-18 13:30N 26°01' W 079°56'4 7.9
2017-Jun-18 13:00N 26°03' W 079°60'4 8.9
2017-Jun-18 12:30N 26°05' W 080°04'3 5.4
2017-Jun-18 12:00N 26°04' W 080°07'1 1.3
2017-Jun-18 11:30N 26°04' W 080°08'0 0.0
2017-Jun-18 11:00N 26°04' W 080°08'0 0.0
2017-Jun-18 10:30N 26°04' W 080°08'0 0.0
2017-Jun-18 10:00N 26°04' W 080°08'0 0.0
2017-Jun-18 09:30N 26°04' W 080°08'0 0.0
2017-Jun-18 09:00N 26°04' W 080°08'0 0.0
2017-Jun-18 08:30N 26°04' W 080°08'0 0.0
2017-Jun-18 08:00N 26°04' W 080°08'0 0.0
2017-Jun-18 07:30N 26°04' W 080°08'0 0.0
2017-Jun-18 07:00N 26°04' W 080°08'0 0.0
2017-Jun-18 06:30N 26°04' W 080°08'0 0.0
2017-Jun-18 06:00N 26°04' W 080°08'0 0.0
2017-Jun-18 05:30N 26°04' W 080°08'0 0.0
2017-Jun-18 05:00N 26°04' W 080°08'0 0.0
2017-Jun-18 04:30N 26°04' W 080°08'0 0.0
2017-Jun-18 04:00N 26°04' W 080°08'0 0.0
2017-Jun-18 03:30N 26°04' W 080°08'0 0.0
2017-Jun-18 03:00N 26°04' W 080°08'0 0.0
2017-Jun-18 02:30N 26°04' W 080°08'0 0.0
2017-Jun-18 02:00N 26°04' W 080°08'0 0.0
2017-Jun-18 01:30N 26°04' W 080°08'0 0.0
2017-Jun-18 01:00N 26°04' W 080°08'0 0.0
2017-Jun-18 00:30N 26°04' W 080°08'0 0.0
2017-Jun-18 00:00N 26°04' W 080°08'0 0.0
2017-Jun-17 23:30N 26°04' W 080°08'0 0.0
2017-Jun-17 23:00N 26°04' W 080°08'0 0.0
2017-Jun-17 22:30N 26°04' W 080°08'0 0.0
2017-Jun-17 22:00N 26°04' W 080°08'0 0.0
2017-Jun-17 21:30N 26°04' W 080°08'0 0.0
2017-Jun-17 21:00N 26°04' W 080°08'0 0.0
2017-Jun-17 20:30N 26°04' W 080°08'0 0.0
2017-Jun-17 20:00N 26°04' W 080°08'0 0.0
2017-Jun-17 19:30N 26°04' W 080°08'0 0.0
2017-Jun-17 19:00N 26°04' W 080°08'0 0.0
2017-Jun-17 18:30N 26°04' W 080°08'0 0.0
2017-Jun-17 18:00N 26°04' W 080°08'0 0.0
2017-Jun-17 17:30N 26°04' W 080°08'1 2.5
2017-Jun-17 17:00N 26°05' W 080°07'3 6.8
2017-Jun-17 16:30N 26°05' W 080°03'611.3
2017-Jun-17 16:00N 26°03' W 079°57'510.9
2017-Jun-17 15:30N 26°01' W 079°51'510.5
2017-Jun-17 15:00N 25°60' W 079°46'1010.5
2017-Jun-17 14:00N 25°57' W 079°34'3 0.1
2017-Jun-15 20:52N 25°56' W 079°32'4 8.9
2017-Jun-15 20:24N 25°57' W 079°36'3 8.5
2017-Jun-15 20:00N 25°58' W 079°40'4 8.0
2017-Jun-15 19:30N 25°60' W 079°44'4 8.0
2017-Jun-15 19:00N 26°01' W 079°48'4 8.3
2017-Jun-15 18:30N 26°02' W 079°52'4 8.3
2017-Jun-15 18:00N 26°03' W 079°57'4 8.3
2017-Jun-15 17:30N 26°05' W 080°01'4 8.8
2017-Jun-15 17:00N 26°06' W 080°06'3 5.2
2017-Jun-15 16:30N 26°04' W 080°08'0 0.2
2017-Jun-15 16:00N 26°04' W 080°08'0 0.0
2017-Jun-15 15:30N 26°04' W 080°08'0 0.0
2017-Jun-15 15:00N 26°04' W 080°08'0 0.0
2017-Jun-15 14:30N 26°04' W 080°08'0 0.0
2017-Jun-15 13:30N 26°04' W 080°08'0 0.0
2017-Jun-15 13:00N 26°04' W 080°08'0 0.0
2017-Jun-15 12:30N 26°04' W 080°08'0 0.0
2017-Jun-15 12:00N 26°04' W 080°08'0 0.0
2017-Jun-15 11:30N 26°04' W 080°08'0 0.0
2017-Jun-15 11:00N 26°04' W 080°08'0 0.0
2017-Jun-15 10:30N 26°04' W 080°08'1 2.1
2017-Jun-15 10:00N 26°04' W 080°07'3 6.8
2017-Jun-15 09:30N 26°05' W 080°03'4 8.2
2017-Jun-15 09:00N 26°04' W 079°59'4 7.7
2017-Jun-15 08:30N 26°03' W 079°55'4 8.7
2017-Jun-15 08:00N 26°01' W 079°50'5 9.2
2017-Jun-15 07:30N 26°00' W 079°45'5 9.4
2017-Jun-15 07:00N 25°59' W 079°40'9 0.3
2017-Jun-14 04:32N 25°56' W 079°31'0 9.5
2017-Jun-14 04:29N 25°56' W 079°32'5 9.2
2017-Jun-14 03:58N 25°57' W 079°37'4 8.9
2017-Jun-14 03:30N 25°59' W 079°41'4 8.5
2017-Jun-14 03:00N 25°60' W 079°46'4 8.3
2017-Jun-14 02:30N 26°01' W 079°50'4 8.2
2017-Jun-14 02:00N 26°03' W 079°54'4 7.9
2017-Jun-14 01:30N 26°04' W 079°59'4 8.5
2017-Jun-14 01:00N 26°05' W 080°03'3 6.7
2017-Jun-14 00:30N 26°04' W 080°07'1 2.2
2017-Jun-14 00:00N 26°04' W 080°08'0 0.1
2017-Jun-13 23:30N 26°04' W 080°08'0 0.2
2017-Jun-13 23:00N 26°04' W 080°08'0 0.0
2017-Jun-13 22:30N 26°04' W 080°08'0 0.0
2017-Jun-13 22:00N 26°04' W 080°08'0 0.0
2017-Jun-13 21:30N 26°04' W 080°08'0 0.0
2017-Jun-13 21:00N 26°04' W 080°08'0 0.0
2017-Jun-13 20:30N 26°04' W 080°08'0 0.0
2017-Jun-13 20:00N 26°04' W 080°08'1 2.0
2017-Jun-13 19:30N 26°04' W 080°07'3 6.3
2017-Jun-13 19:00N 26°05' W 080°04'5 9.6
2017-Jun-13 18:30N 26°05' W 079°58'5 9.7
2017-Jun-13 18:00N 26°05' W 079°53'5 9.3
2017-Jun-13 17:30N 26°05' W 079°48'5 9.5
2017-Jun-13 17:00N 26°05' W 079°42'5 9.4
2017-Jun-13 16:30N 26°05' W 079°37'5 9.5
2017-Jun-13 16:00N 26°05' W 079°32'11 0.8
2017-Jun-13 03:17N 26°16' W 079°31'310.6
2017-Jun-13 03:00N 26°15' W 079°34'510.8
2017-Jun-13 02:30N 26°13' W 079°40'510.6
2017-Jun-13 02:00N 26°11' W 079°46'511.0
2017-Jun-13 01:30N 26°09' W 079°52'511.0
2017-Jun-13 01:00N 26°07' W 079°57'510.4
2017-Jun-13 00:30N 26°06' W 080°03'4 7.8
2017-Jun-13 00:00N 26°04' W 080°07'1 2.2
2017-Jun-12 23:30N 26°04' W 080°08'0 0.0
2017-Jun-12 23:00N 26°04' W 080°08'0 0.0
2017-Jun-12 22:30N 26°04' W 080°08'0 0.0
2017-Jun-12 22:00N 26°04' W 080°08'0 0.0
2017-Jun-12 21:30N 26°04' W 080°08'  
Track history (hours):
 
Tides and Currents Weather Stations Pressure Air Temp Water Temp Dewpoint Dewpoint Depression Visibility Wind Speed Wind Dir Waves Ship Positions

Seaexpressii

Last reported at 2017-Jun-22 21:09 UTC. Time now 2017-Jun-24 15:38 UTC.
Position N 25°57' W 079°38'.

Length 37 m; draft 2.2 m.

Type: Ship (hazmat cat C). MMSI: 356449000.

Date/timePositionNaut miles runAvg speedWind from/ knotsBaromVisibWave heightAir tempDewpointWater temp
2017-Jun-22 21:09N 25°57' W 079°38'1 8.1
2017-Jun-22 21:00N 25°57' W 079°40'4 8.1
2017-Jun-22 20:30N 25°59' W 079°44'4 7.8
2017-Jun-22 20:00N 26°00' W 079°48'4 7.9
2017-Jun-22 19:30N 26°02' W 079°52'4 8.1
2017-Jun-22 19:00N 26°03' W 079°56'4 8.9
2017-Jun-22 18:30N 26°04' W 080°01'5 9.6
2017-Jun-22 18:00N 26°06' W 080°06'3 5.0
2017-Jun-22 17:30N 26°04' W 080°08'0 0.1
2017-Jun-22 17:01N 26°04' W 080°08'0 0.0
2017-Jun-22 16:30N 26°04' W 080°08'0 0.0
2017-Jun-22 16:01N 26°04' W 080°08'0 0.0
2017-Jun-22 15:30N 26°04' W 080°08'0 0.0
2017-Jun-22 15:00N 26°04' W 080°08'0 0.0
2017-Jun-22 14:30N 26°04' W 080°08'0 0.0
2017-Jun-22 13:30N 26°04' W 080°08'0 0.0
2017-Jun-22 13:00N 26°04' W 080°08'0 0.0
2017-Jun-22 12:30N 26°04' W 080°08'1 2.9
2017-Jun-22 12:00N 26°05' W 080°07'4 7.3
2017-Jun-22 11:30N 26°04' W 080°03'510.8
2017-Jun-22 11:00N 26°03' W 079°57'510.4
2017-Jun-22 10:30N 26°02' W 079°51'510.3
2017-Jun-22 10:00N 26°00' W 079°46'510.3
2017-Jun-22 09:30N 25°59' W 079°40'10 0.4
2017-Jun-21 04:28N 25°53' W 079°30'3 7.3
2017-Jun-21 03:59N 25°55' W 079°34'4 7.1
2017-Jun-21 03:29N 25°58' W 079°37'4 7.6
2017-Jun-21 03:00N 25°59' W 079°41'4 7.8
2017-Jun-21 02:30N 26°00' W 079°45'4 8.1
2017-Jun-21 02:00N 26°01' W 079°49'4 8.7
2017-Jun-21 01:30N 26°01' W 079°54'5 9.1
2017-Jun-21 01:00N 26°03' W 079°59'5 9.6
2017-Jun-21 00:30N 26°05' W 080°04'3 5.9
2017-Jun-21 00:00N 26°04' W 080°07'1 2.0
2017-Jun-20 23:30N 26°04' W 080°08'0 0.0
2017-Jun-20 23:00N 26°04' W 080°08'0 0.0
2017-Jun-20 22:30N 26°04' W 080°08'0 0.0
2017-Jun-20 22:00N 26°04' W 080°08'0 0.0
2017-Jun-20 21:30N 26°04' W 080°08'0 0.0
2017-Jun-20 21:00N 26°04' W 080°08'0 0.0
2017-Jun-20 20:30N 26°04' W 080°08'0 0.0
2017-Jun-20 20:00N 26°04' W 080°08'0 0.0
2017-Jun-20 19:30N 26°04' W 080°08'0 0.0
2017-Jun-20 19:00N 26°04' W 080°08'0 0.0
2017-Jun-20 18:30N 26°04' W 080°08'0 0.0
2017-Jun-20 18:00N 26°04' W 080°08'0 0.0
2017-Jun-20 17:30N 26°04' W 080°08'0 0.0
2017-Jun-20 17:00N 26°04' W 080°08'0 0.0
2017-Jun-20 16:30N 26°04' W 080°08'0 0.0
2017-Jun-20 16:00N 26°04' W 080°08'0 0.0
2017-Jun-20 15:30N 26°04' W 080°08'0 0.0
2017-Jun-20 15:00N 26°04' W 080°08'0 0.0
2017-Jun-20 14:30N 26°04' W 080°08'4 3.7
2017-Jun-20 13:30N 26°04' W 080°04'5 9.6
2017-Jun-20 13:00N 26°03' W 079°59'510.2
2017-Jun-20 12:30N 26°02' W 079°53'510.3
2017-Jun-20 12:00N 26°01' W 079°47'510.0
2017-Jun-20 11:27N 25°59' W 079°42'12 0.3
2017-Jun-18 16:27N 25°54' W 079°30'4 9.0
2017-Jun-18 16:00N 25°55' W 079°34'4 8.7
2017-Jun-18 15:30N 25°55' W 079°39'4 8.6
2017-Jun-18 15:00N 25°56' W 079°44'8 8.2
2017-Jun-18 14:00N 25°59' W 079°52'4 8.2
2017-Jun-18 13:30N 26°01' W 079°56'4 7.9
2017-Jun-18 13:00N 26°03' W 079°60'4 8.9
2017-Jun-18 12:30N 26°05' W 080°04'3 5.4
2017-Jun-18 12:00N 26°04' W 080°07'1 1.3
2017-Jun-18 11:30N 26°04' W 080°08'0 0.0
2017-Jun-18 11:00N 26°04' W 080°08'0 0.0
2017-Jun-18 10:30N 26°04' W 080°08'0 0.0
2017-Jun-18 10:00N 26°04' W 080°08'0 0.0
2017-Jun-18 09:30N 26°04' W 080°08'0 0.0
2017-Jun-18 09:00N 26°04' W 080°08'0 0.0
2017-Jun-18 08:30N 26°04' W 080°08'0 0.0
2017-Jun-18 08:00N 26°04' W 080°08'0 0.0
2017-Jun-18 07:30N 26°04' W 080°08'0 0.0
2017-Jun-18 07:00N 26°04' W 080°08'0 0.0
2017-Jun-18 06:30N 26°04' W 080°08'0 0.0
2017-Jun-18 06:00N 26°04' W 080°08'0 0.0
2017-Jun-18 05:30N 26°04' W 080°08'0 0.0
2017-Jun-18 05:00N 26°04' W 080°08'0 0.0
2017-Jun-18 04:30N 26°04' W 080°08'0 0.0
2017-Jun-18 04:00N 26°04' W 080°08'0 0.0
2017-Jun-18 03:30N 26°04' W 080°08'0 0.0
2017-Jun-18 03:00N 26°04' W 080°08'0 0.0
2017-Jun-18 02:30N 26°04' W 080°08'0 0.0
2017-Jun-18 02:00N 26°04' W 080°08'0 0.0
2017-Jun-18 01:30N 26°04' W 080°08'0 0.0
2017-Jun-18 01:00N 26°04' W 080°08'0 0.0
2017-Jun-18 00:30N 26°04' W 080°08'0 0.0
2017-Jun-18 00:00N 26°04' W 080°08'0 0.0
2017-Jun-17 23:30N 26°04' W 080°08'0 0.0
2017-Jun-17 23:00N 26°04' W 080°08'0 0.0
2017-Jun-17 22:30N 26°04' W 080°08'0 0.0
2017-Jun-17 22:00N 26°04' W 080°08'0 0.0
2017-Jun-17 21:30N 26°04' W 080°08'0 0.0
2017-Jun-17 21:00N 26°04' W 080°08'0 0.0
2017-Jun-17 20:30N 26°04' W 080°08'0 0.0
2017-Jun-17 20:00N 26°04' W 080°08'0 0.0
2017-Jun-17 19:30N 26°04' W 080°08'0 0.0
2017-Jun-17 19:00N 26°04' W 080°08'0 0.0
2017-Jun-17 18:30N 26°04' W 080°08'0 0.0
2017-Jun-17 18:00N 26°04' W 080°08'0 0.0
2017-Jun-17 17:30N 26°04' W 080°08'1 2.5
2017-Jun-17 17:00N 26°05' W 080°07'3 6.8
2017-Jun-17 16:30N 26°05' W 080°03'611.3
2017-Jun-17 16:00N 26°03' W 079°57'510.9
2017-Jun-17 15:30N 26°01' W 079°51'510.5
2017-Jun-17 15:00N 25°60' W 079°46'1010.5
2017-Jun-17 14:00N 25°57' W 079°34'3 0.1
2017-Jun-15 20:52N 25°56' W 079°32'4 8.9
2017-Jun-15 20:24N 25°57' W 079°36'3 8.5
2017-Jun-15 20:00N 25°58' W 079°40'4 8.0
2017-Jun-15 19:30N 25°60' W 079°44'4 8.0
2017-Jun-15 19:00N 26°01' W 079°48'4 8.3
2017-Jun-15 18:30N 26°02' W 079°52'4 8.3
2017-Jun-15 18:00N 26°03' W 079°57'4 8.3
2017-Jun-15 17:30N 26°05' W 080°01'4 8.8
2017-Jun-15 17:00N 26°06' W 080°06'3 5.2
2017-Jun-15 16:30N 26°04' W 080°08'0 0.2
2017-Jun-15 16:00N 26°04' W 080°08'0 0.0
2017-Jun-15 15:30N 26°04' W 080°08'0 0.0
2017-Jun-15 15:00N 26°04' W 080°08'0 0.0
2017-Jun-15 14:30N 26°04' W 080°08'0 0.0
2017-Jun-15 13:30N 26°04' W 080°08'0 0.0
2017-Jun-15 13:00N 26°04' W 080°08'0 0.0
2017-Jun-15 12:30N 26°04' W 080°08'0 0.0
2017-Jun-15 12:00N 26°04' W 080°08'0 0.0
2017-Jun-15 11:30N 26°04' W 080°08'0 0.0
2017-Jun-15 11:00N 26°04' W 080°08'0 0.0
2017-Jun-15 10:30N 26°04' W 080°08'1 2.1
2017-Jun-15 10:00N 26°04' W 080°07'3 6.8
2017-Jun-15 09:30N 26°05' W 080°03'4 8.2
2017-Jun-15 09:00N 26°04' W 079°59'4 7.7
2017-Jun-15 08:30N 26°03' W 079°55'4 8.7
2017-Jun-15 08:00N 26°01' W 079°50'5 9.2
2017-Jun-15 07:30N 26°00' W 079°45'5 9.4
2017-Jun-15 07:00N 25°59' W 079°40'9 0.3
2017-Jun-14 04:32N 25°56' W 079°31'0 9.5
2017-Jun-14 04:29N 25°56' W 079°32'5 9.2
2017-Jun-14 03:58N 25°57' W 079°37'4 8.9
2017-Jun-14 03:30N 25°59' W 079°41'4 8.5
2017-Jun-14 03:00N 25°60' W 079°46'4 8.3
2017-Jun-14 02:30N 26°01' W 079°50'4 8.2
2017-Jun-14 02:00N 26°03' W 079°54'4 7.9
2017-Jun-14 01:30N 26°04' W 079°59'4 8.5
2017-Jun-14 01:00N 26°05' W 080°03'3 6.7
2017-Jun-14 00:30N 26°04' W 080°07'1 2.2
2017-Jun-14 00:00N 26°04' W 080°08'0 0.1
2017-Jun-13 23:30N 26°04' W 080°08'0 0.2
2017-Jun-13 23:00N 26°04' W 080°08'0 0.0
2017-Jun-13 22:30N 26°04' W 080°08'0 0.0
2017-Jun-13 22:00N 26°04' W 080°08'0 0.0
2017-Jun-13 21:30N 26°04' W 080°08'0 0.0
2017-Jun-13 21:00N 26°04' W 080°08'0 0.0
2017-Jun-13 20:30N 26°04' W 080°08'0 0.0
2017-Jun-13 20:00N 26°04' W 080°08'1 2.0
2017-Jun-13 19:30N 26°04' W 080°07'3 6.3
2017-Jun-13 19:00N 26°05' W 080°04'5 9.6
2017-Jun-13 18:30N 26°05' W 079°58'5 9.7
2017-Jun-13 18:00N 26°05' W 079°53'5 9.3
2017-Jun-13 17:30N 26°05' W 079°48'5 9.5
2017-Jun-13 17:00N 26°05' W 079°42'5 9.4
2017-Jun-13 16:30N 26°05' W 079°37'5 9.5
2017-Jun-13 16:00N 26°05' W 079°32'11 0.8
2017-Jun-13 03:17N 26°16' W 079°31'310.6
2017-Jun-13 03:00N 26°15' W 079°34'510.8
2017-Jun-13 02:30N 26°13' W 079°40'510.6
2017-Jun-13 02:00N 26°11' W 079°46'511.0
2017-Jun-13 01:30N 26°09' W 079°52'511.0
2017-Jun-13 01:00N 26°07' W 079°57'510.4
2017-Jun-13 00:30N 26°06' W 080°03'4 7.8
2017-Jun-13 00:00N 26°04' W 080°07'1 2.2
2017-Jun-12 23:30N 26°04' W 080°08'0 0.0
2017-Jun-12 23:00N 26°04' W 080°08'0 0.0
2017-Jun-12 22:30N 26°04' W 080°08'0 0.0
2017-Jun-12 22:00N 26°04' W 080°08'0 0.0
2017-Jun-12 21:30N 26°04' W 080°08'  

Dump ship's entire track history